Time,TemperatureF,DewpointF,PressureIn,WindDirection,WindDirectionDegrees,WindSpeedMPH,WindSpeedGustMPH,Humidity,HourlyPrecipIn,Conditions,Clouds,dailyrainin,SoftwareType,DateUTC
2017-03-24 00:00:00,48.0,11.0,30.22,SSE,157,3.1,3.1,22,0.00,,---,0.00,VWS V15.00,2017-03-24 04:00:00,
2017-03-24 00:05:00,48.0,11.0,30.22,SSW,194,3.6,3.6,22,0.00,,---,0.00,VWS V15.00,2017-03-24 04:05:00,
2017-03-24 00:10:00,48.0,11.0,30.22,South,186,3.6,3.6,22,0.00,,---,0.00,VWS V15.00,2017-03-24 04:10:00,
2017-03-24 00:15:00,48.0,11.0,30.22,South,182,4.0,4.0,22,0.00,,---,0.00,VWS V15.00,2017-03-24 04:15:00,
2017-03-24 00:20:00,48.2,10.1,30.22,South,171,4.9,4.9,21,0.00,,---,0.00,VWS V15.00,2017-03-24 04:20:00,
2017-03-24 00:25:00,48.4,10.3,30.22,South,169,4.0,4.0,21,0.00,,---,0.00,VWS V15.00,2017-03-24 04:25:00,
2017-03-24 00:30:00,48.4,10.3,30.22,SSW,193,3.1,4.0,21,0.00,,---,0.00,VWS V15.00,2017-03-24 04:30:00,
2017-03-24 00:35:00,48.4,10.3,30.22,SSW,199,6.7,6.7,21,0.00,,---,0.00,VWS V15.00,2017-03-24 04:35:00,
2017-03-24 00:40:00,48.4,10.3,30.22,South,188,4.9,4.9,21,0.00,,---,0.00,VWS V15.00,2017-03-24 04:40:00,
2017-03-24 00:45:00,48.0,11.0,30.22,SSW,193,3.1,4.9,22,0.00,,---,0.00,VWS V15.00,2017-03-24 04:45:00,
2017-03-24 00:50:00,48.0,11.0,30.22,SSE,159,2.7,4.9,22,0.00,,---,0.00,VWS V15.00,2017-03-24 04:50:00,
2017-03-24 00:55:00,47.8,10.9,30.22,South,186,3.6,3.6,22,0.00,,---,0.00,VWS V15.00,2017-03-24 04:55:00,
2017-03-24 01:00:00,48.0,11.0,30.22,South,177,4.0,4.9,22,0.00,,---,0.00,VWS V15.00,2017-03-24 05:00:00,
2017-03-24 01:05:00,47.8,10.9,30.22,SSE,166,3.1,3.1,22,0.00,,---,0.00,VWS V15.00,2017-03-24 05:05:00,
2017-03-24 01:10:00,47.8,10.9,30.22,South,170,2.7,2.7,22,0.00,,---,0.00,VWS V15.00,2017-03-24 05:10:00,
2017-03-24 01:20:00,47.7,10.7,30.22,South,172,4.0,4.5,22,0.00,,---,0.00,VWS V15.00,2017-03-24 05:20:00,
2017-03-24 01:25:00,47.7,12.7,30.22,SSE,160,4.0,4.0,24,0.00,,---,0.00,VWS V15.00,2017-03-24 05:25:00,
2017-03-24 01:30:00,47.7,12.7,30.19,SSE,164,3.1,3.1,24,0.00,,---,0.00,VWS V15.00,2017-03-24 05:30:00,
2017-03-24 01:35:00,47.5,12.5,30.19,SSE,147,2.7,2.7,24,0.00,,---,0.00,VWS V15.00,2017-03-24 05:35:00,
2017-03-24 01:40:00,47.5,12.5,30.19,South,176,6.3,6.3,24,0.00,,---,0.00,VWS V15.00,2017-03-24 05:40:00,
2017-03-24 01:45:00,47.3,12.4,30.19,South,178,3.1,3.1,24,0.00,,---,0.00,VWS V15.00,2017-03-24 05:45:00,
2017-03-24 01:50:00,47.3,12.4,30.19,SSE,149,5.4,5.4,24,0.00,,---,0.00,VWS V15.00,2017-03-24 05:50:00,
2017-03-24 01:55:00,47.3,12.4,30.19,SE,145,4.0,5.4,24,0.00,,---,0.00,VWS V15.00,2017-03-24 05:55:00,
2017-03-24 02:00:00,47.3,12.4,30.16,SSE,149,4.0,4.0,24,0.00,,---,0.00,VWS V15.00,2017-03-24 06:00:00,
2017-03-24 02:05:00,47.1,12.2,30.16,SE,146,4.0,4.0,24,0.00,,---,0.00,VWS V15.00,2017-03-24 06:05:00,
2017-03-24 02:10:00,46.8,11.9,30.16,South,182,3.6,3.6,24,0.00,,---,0.00,VWS V15.00,2017-03-24 06:10:00,
2017-03-24 02:15:00,46.4,11.6,30.16,South,190,5.4,5.4,24,0.00,,---,0.00,VWS V15.00,2017-03-24 06:15:00,
2017-03-24 02:20:00,46.4,11.6,30.16,South,184,4.9,5.4,24,0.00,,---,0.00,VWS V15.00,2017-03-24 06:20:00,
2017-03-24 02:25:00,46.6,11.7,30.16,SE,139,2.7,2.7,24,0.00,,---,0.00,VWS V15.00,2017-03-24 06:25:00,
2017-03-24 02:30:00,46.4,11.6,30.16,SE,140,2.7,2.7,24,0.00,,---,0.00,VWS V15.00,2017-03-24 06:30:00,
2017-03-24 02:35:00,46.4,11.6,30.16,South,174,3.1,4.0,24,0.00,,---,0.00,VWS V15.00,2017-03-24 06:35:00,
2017-03-24 02:40:00,46.2,12.4,30.16,SE,141,4.9,4.9,25,0.00,,---,0.00,VWS V15.00,2017-03-24 06:40:00,
2017-03-24 02:45:00,46.0,12.2,30.16,SE,146,4.0,4.0,25,0.00,,---,0.00,VWS V15.00,2017-03-24 06:45:00,
2017-03-24 02:50:00,46.0,13.9,30.16,South,185,3.1,3.6,27,0.00,,---,0.00,VWS V15.00,2017-03-24 06:50:00,
2017-03-24 02:55:00,46.0,13.9,30.16,SSE,163,3.6,3.6,27,0.00,,---,0.00,VWS V15.00,2017-03-24 06:55:00,
2017-03-24 03:00:00,46.0,13.9,30.16,SSE,166,2.7,3.6,27,0.00,,---,0.00,VWS V15.00,2017-03-24 07:00:00,
2017-03-24 03:05:00,46.0,13.9,30.16,SSE,166,4.0,4.0,27,0.00,,---,0.00,VWS V15.00,2017-03-24 07:05:00,
2017-03-24 03:10:00,46.2,14.1,30.16,South,170,2.7,3.1,27,0.00,,---,0.00,VWS V15.00,2017-03-24 07:10:00,
2017-03-24 03:15:00,46.4,14.2,30.16,SSE,167,4.0,4.9,27,0.00,,---,0.00,VWS V15.00,2017-03-24 07:15:00,
2017-03-24 03:20:00,46.6,14.4,30.16,South,173,2.7,4.0,27,0.00,,---,0.00,VWS V15.00,2017-03-24 07:20:00,
2017-03-24 03:25:00,46.4,14.2,30.16,SSE,160,2.2,3.1,27,0.00,,---,0.00,VWS V15.00,2017-03-24 07:25:00,
2017-03-24 03:30:00,46.4,14.2,30.16,South,179,2.7,3.1,27,0.00,,---,0.00,VWS V15.00,2017-03-24 07:30:00,
2017-03-24 03:34:00,46.4,14.2,30.16,SSE,160,3.1,3.1,27,0.00,,---,0.00,VWS V15.00,2017-03-24 07:34:00,
2017-03-24 03:39:00,46.6,14.4,30.16,South,172,2.7,2.7,27,0.00,,---,0.00,VWS V15.00,2017-03-24 07:39:00,
2017-03-24 03:44:00,46.8,14.6,30.16,South,171,4.5,4.5,27,0.00,,---,0.00,VWS V15.00,2017-03-24 07:44:00,
2017-03-24 03:49:00,47.1,14.9,30.16,South,182,4.0,4.0,27,0.00,,---,0.00,VWS V15.00,2017-03-24 07:49:00,
2017-03-24 03:54:00,46.8,14.6,30.16,SSW,195,3.1,3.1,27,0.00,,---,0.00,VWS V15.00,2017-03-24 07:54:00,
2017-03-24 03:59:00,46.6,14.4,30.16,SE,136,2.7,4.0,27,0.00,,---,0.00,VWS V15.00,2017-03-24 07:59:00,
2017-03-24 04:04:00,46.6,14.4,30.16,South,183,2.7,4.0,27,0.00,,---,0.00,VWS V15.00,2017-03-24 08:04:00,
2017-03-24 04:09:00,46.6,14.4,30.16,South,182,2.7,3.1,27,0.00,,---,0.00,VWS V15.00,2017-03-24 08:09:00,
2017-03-24 04:14:00,46.4,14.2,30.16,South,180,3.6,3.6,27,0.00,,---,0.00,VWS V15.00,2017-03-24 08:14:00,
2017-03-24 04:19:00,46.4,14.2,30.16,South,177,3.6,3.6,27,0.00,,---,0.00,VWS V15.00,2017-03-24 08:19:00,
2017-03-24 04:24:00,46.4,14.2,30.16,South,183,2.7,3.6,27,0.00,,---,0.00,VWS V15.00,2017-03-24 08:24:00,
2017-03-24 04:29:00,46.4,14.2,30.16,South,180,3.1,3.6,27,0.00,,---,0.00,VWS V15.00,2017-03-24 08:29:00,
2017-03-24 04:34:00,46.4,14.2,30.16,South,186,4.9,4.9,27,0.00,,---,0.00,VWS V15.00,2017-03-24 08:34:00,
2017-03-24 04:39:00,46.4,14.2,30.16,South,177,4.0,4.0,27,0.00,,---,0.00,VWS V15.00,2017-03-24 08:39:00,
2017-03-24 04:44:00,46.6,14.4,30.16,South,185,4.9,4.9,27,0.00,,---,0.00,VWS V15.00,2017-03-24 08:44:00,
2017-03-24 04:49:00,46.6,14.4,30.16,South,191,4.0,4.0,27,0.00,,---,0.00,VWS V15.00,2017-03-24 08:49:00,
2017-03-24 04:54:00,46.8,14.6,30.16,SSW,196,5.4,5.8,27,0.00,,---,0.00,VWS V15.00,2017-03-24 08:54:00,
2017-03-24 04:59:00,46.8,14.6,30.16,South,174,3.1,3.1,27,0.00,,---,0.00,VWS V15.00,2017-03-24 08:59:00,
2017-03-24 05:04:00,46.8,14.6,30.16,South,189,4.0,4.0,27,0.00,,---,0.00,VWS V15.00,2017-03-24 09:04:00,
2017-03-24 05:09:00,46.8,14.6,30.16,SSW,193,4.0,4.0,27,0.00,,---,0.00,VWS V15.00,2017-03-24 09:09:00,
2017-03-24 05:14:00,46.8,14.6,30.16,South,171,5.8,5.8,27,0.00,,---,0.00,VWS V15.00,2017-03-24 09:14:00,
2017-03-24 05:19:00,46.8,14.6,30.16,SSW,211,3.1,3.1,27,0.00,,---,0.00,VWS V15.00,2017-03-24 09:19:00,
2017-03-24 05:24:00,46.6,14.4,30.16,South,180,5.4,5.4,27,0.00,,---,0.00,VWS V15.00,2017-03-24 09:24:00,
2017-03-24 05:29:00,46.6,15.2,30.16,South,181,4.0,4.0,28,0.00,,---,0.00,VWS V15.00,2017-03-24 09:29:00,
2017-03-24 05:34:00,46.4,15.1,30.16,South,191,3.6,3.6,28,0.00,,---,0.00,VWS V15.00,2017-03-24 09:34:00,
2017-03-24 05:39:00,46.4,15.1,30.16,South,173,4.0,4.5,28,0.00,,---,0.00,VWS V15.00,2017-03-24 09:39:00,
2017-03-24 05:44:00,46.6,15.2,30.16,SSW,192,4.0,4.9,28,0.00,,---,0.00,VWS V15.00,2017-03-24 09:44:00,
2017-03-24 05:49:00,46.4,15.1,30.16,South,171,4.9,4.9,28,0.00,,---,0.00,VWS V15.00,2017-03-24 09:49:00,
2017-03-24 05:54:00,46.2,14.9,30.16,South,190,5.4,5.4,28,0.00,,---,0.00,VWS V15.00,2017-03-24 09:54:00,
2017-03-24 05:59:00,46.2,14.9,30.16,SSW,195,4.9,4.9,28,0.00,,---,0.00,VWS V15.00,2017-03-24 09:59:00,
2017-03-24 06:04:00,46.0,14.8,30.16,SSW,203,5.4,5.4,28,0.00,,---,0.00,VWS V15.00,2017-03-24 10:04:00,
2017-03-24 06:09:00,46.0,14.8,30.16,South,184,4.0,4.0,28,0.00,,---,0.00,VWS V15.00,2017-03-24 10:09:00,
2017-03-24 06:14:00,46.2,14.9,30.16,South,186,4.0,4.0,28,0.00,,---,0.00,VWS V15.00,2017-03-24 10:14:00,
2017-03-24 06:19:00,46.2,14.9,30.16,South,178,4.5,4.5,28,0.00,,---,0.00,VWS V15.00,2017-03-24 10:19:00,
2017-03-24 06:24:00,46.4,15.1,30.16,South,169,4.0,5.8,28,0.00,,---,0.00,VWS V15.00,2017-03-24 10:24:00,
2017-03-24 06:29:00,46.6,15.2,30.16,South,185,3.6,4.0,28,0.00,,---,0.00,VWS V15.00,2017-03-24 10:29:00,
2017-03-24 06:34:00,46.9,16.4,30.16,South,180,4.9,5.4,29,0.00,,---,0.00,VWS V15.00,2017-03-24 10:34:00,
2017-03-24 06:39:00,47.1,16.5,30.16,South,190,5.4,5.8,29,0.00,,---,0.00,VWS V15.00,2017-03-24 10:39:00,
2017-03-24 06:44:00,47.3,16.7,30.16,South,178,4.9,4.9,29,0.00,,---,0.00,VWS V15.00,2017-03-24 10:44:00,
2017-03-24 06:49:00,47.7,17.0,30.16,South,182,4.0,4.9,29,0.00,,---,0.00,VWS V15.00,2017-03-24 10:49:00,
2017-03-24 06:54:00,47.8,17.1,30.16,SSW,205,7.2,7.2,29,0.00,,---,0.00,VWS V15.00,2017-03-24 10:54:00,
2017-03-24 06:55:00,47.8,17.1,30.16,SSW,205,7.2,7.2,29,0.00,,---,0.00,VWS V15.00,2017-03-24 10:55:00,
2017-03-24 07:00:00,48.0,17.3,30.16,SSW,206,6.3,6.3,29,0.00,,---,0.00,VWS V15.00,2017-03-24 11:00:00,
2017-03-24 07:05:00,48.2,17.5,30.16,SSW,210,5.8,5.8,29,0.00,,---,0.00,VWS V15.00,2017-03-24 11:05:00,
2017-03-24 07:10:00,48.4,17.6,30.16,SSW,200,6.3,7.6,29,0.00,,---,0.00,VWS V15.00,2017-03-24 11:10:00,
2017-03-24 07:15:00,48.7,18.7,30.16,SSE,165,5.4,5.4,30,0.00,,---,0.00,VWS V15.00,2017-03-24 11:15:00,
2017-03-24 07:20:00,48.7,18.7,30.16,SSE,161,5.4,5.4,30,0.00,,---,0.00,VWS V15.00,2017-03-24 11:20:00,
2017-03-24 07:25:00,48.9,18.9,30.16,SSW,196,5.8,5.8,30,0.00,,---,0.00,VWS V15.00,2017-03-24 11:25:00,
2017-03-24 07:30:00,48.9,18.9,30.16,South,180,6.3,6.3,30,0.00,,---,0.00,VWS V15.00,2017-03-24 11:30:00,
2017-03-24 07:35:00,48.9,19.6,30.16,SSW,210,7.6,7.6,31,0.00,,---,0.00,VWS V15.00,2017-03-24 11:35:00,
2017-03-24 07:40:00,49.1,19.8,30.16,SSE,161,4.0,8.1,31,0.00,,---,0.00,VWS V15.00,2017-03-24 11:40:00,
2017-03-24 07:45:00,49.1,19.8,30.19,SSW,195,7.6,7.6,31,0.00,,---,0.00,VWS V15.00,2017-03-24 11:45:00,
2017-03-24 07:50:00,49.3,19.9,30.19,SSW,200,4.0,5.4,31,0.00,,---,0.00,VWS V15.00,2017-03-24 11:50:00,
2017-03-24 07:55:00,49.6,20.3,30.19,SSE,162,5.4,5.4,31,0.00,,---,0.00,VWS V15.00,2017-03-24 11:55:00,
2017-03-24 08:00:00,49.6,20.3,30.19,SSW,204,7.6,7.6,31,0.00,,---,0.00,VWS V15.00,2017-03-24 12:00:00,
2017-03-24 08:05:00,49.6,21.0,30.19,South,188,5.4,5.8,32,0.00,,---,0.00,VWS V15.00,2017-03-24 12:05:00,
2017-03-24 08:10:00,50.0,21.3,30.19,SSW,195,7.6,7.6,32,0.00,,---,0.00,VWS V15.00,2017-03-24 12:10:00,
2017-03-24 08:15:00,50.2,21.5,30.19,South,177,6.7,6.7,32,0.00,,---,0.00,VWS V15.00,2017-03-24 12:15:00,
2017-03-24 08:20:00,50.2,21.5,30.19,South,179,5.8,5.8,32,0.00,,---,0.00,VWS V15.00,2017-03-24 12:20:00,
2017-03-24 08:25:00,50.2,21.5,30.19,SSW,208,5.8,6.3,32,0.00,,---,0.00,VWS V15.00,2017-03-24 12:25:00,
2017-03-24 08:30:00,50.2,21.5,30.19,SSW,199,5.8,5.8,32,0.00,,---,0.00,VWS V15.00,2017-03-24 12:30:00,
2017-03-24 08:35:00,50.4,21.6,30.19,SSW,196,6.3,6.3,32,0.00,,---,0.00,VWS V15.00,2017-03-24 12:35:00,
2017-03-24 08:40:00,50.5,22.5,30.19,South,181,8.3,8.3,33,0.00,,---,0.00,VWS V15.00,2017-03-24 12:40:00,
2017-03-24 08:45:00,50.7,22.7,30.19,SSW,199,7.2,7.6,33,0.00,,---,0.00,VWS V15.00,2017-03-24 12:45:00,
2017-03-24 08:50:00,50.9,22.8,30.19,SSW,197,8.1,8.1,33,0.00,,---,0.00,VWS V15.00,2017-03-24 12:50:00,
2017-03-24 08:55:00,51.1,23.0,30.19,South,179,6.3,6.3,33,0.00,,---,0.00,VWS V15.00,2017-03-24 12:55:00,
2017-03-24 09:00:00,51.3,23.9,30.19,SSW,196,5.8,5.8,34,0.00,,---,0.00,VWS V15.00,2017-03-24 13:00:00,
2017-03-24 09:05:00,51.4,24.0,30.19,South,189,4.9,5.8,34,0.00,,---,0.00,VWS V15.00,2017-03-24 13:05:00,
2017-03-24 09:10:00,51.6,24.2,30.19,SSW,205,5.4,7.6,34,0.00,,---,0.00,VWS V15.00,2017-03-24 13:10:00,
2017-03-24 09:15:00,52.0,24.5,30.19,South,190,4.9,5.8,34,0.00,,---,0.00,VWS V15.00,2017-03-24 13:15:00,
2017-03-24 09:20:00,52.5,25.0,30.19,SSW,193,5.8,5.8,34,0.00,,---,0.00,VWS V15.00,2017-03-24 13:20:00,
2017-03-24 09:25:00,52.9,25.3,30.19,SSW,209,7.2,7.2,34,0.00,,---,0.00,VWS V15.00,2017-03-24 13:25:00,
2017-03-24 09:30:00,53.1,25.5,30.19,SSW,196,7.6,7.6,34,0.00,,---,0.00,VWS V15.00,2017-03-24 13:30:00,
2017-03-24 09:35:00,53.2,26.3,30.19,SSW,204,7.2,7.2,35,0.00,,---,0.00,VWS V15.00,2017-03-24 13:35:00,
2017-03-24 09:40:00,53.8,26.8,30.19,SSW,204,8.1,8.1,35,0.00,,---,0.00,VWS V15.00,2017-03-24 13:40:00,
2017-03-24 09:45:00,54.5,27.4,30.19,SW,217,8.1,8.1,35,0.00,,---,0.00,VWS V15.00,2017-03-24 13:45:00,
2017-03-24 09:50:00,55.0,27.9,30.19,SW,216,6.7,6.7,35,0.00,,---,0.00,VWS V15.00,2017-03-24 13:50:00,
2017-03-24 09:55:00,55.6,28.4,30.19,SSW,204,10.5,10.5,35,0.00,,---,0.00,VWS V15.00,2017-03-24 13:55:00,
2017-03-24 10:00:00,55.6,28.4,30.19,SSW,209,5.8,11.0,35,0.00,,---,0.00,VWS V15.00,2017-03-24 14:00:00,
2017-03-24 10:05:00,55.6,28.4,30.19,SW,217,5.8,5.8,35,0.00,,---,0.00,VWS V15.00,2017-03-24 14:05:00,
2017-03-24 10:10:00,56.3,29.0,30.19,South,181,4.9,4.9,35,0.00,,---,0.00,VWS V15.00,2017-03-24 14:10:00,
2017-03-24 10:15:00,56.7,29.3,30.19,SSW,207,6.3,6.3,35,0.00,,---,0.00,VWS V15.00,2017-03-24 14:15:00,
2017-03-24 10:20:00,56.7,29.3,30.19,SSW,195,5.8,5.8,35,0.00,,---,0.00,VWS V15.00,2017-03-24 14:20:00,
2017-03-24 10:25:00,57.0,29.7,30.19,SW,223,10.1,10.1,35,0.00,,---,0.00,VWS V15.00,2017-03-24 14:25:00,
2017-03-24 10:30:00,57.9,30.5,30.19,South,187,10.1,10.1,35,0.00,,---,0.00,VWS V15.00,2017-03-24 14:30:00,
2017-03-24 10:31:00,58.1,30.6,30.19,SW,217,8.7,8.7,35,0.00,,---,0.00,VWS V15.00,2017-03-24 14:31:00,
2017-03-24 10:36:00,58.1,30.6,30.19,SSW,204,13.2,13.2,35,0.00,,---,0.00,VWS V15.00,2017-03-24 14:36:00,
2017-03-24 10:41:00,58.1,29.9,30.19,SSW,197,11.0,12.8,34,0.00,,---,0.00,VWS V15.00,2017-03-24 14:41:00,
2017-03-24 10:46:00,58.1,29.9,30.19,SW,217,12.3,12.3,34,0.00,,---,0.00,VWS V15.00,2017-03-24 14:46:00,
2017-03-24 10:51:00,58.1,29.9,30.19,SSW,195,8.1,11.0,34,0.00,,---,0.00,VWS V15.00,2017-03-24 14:51:00,
2017-03-24 10:56:00,58.1,29.9,30.19,SSW,209,8.1,8.1,34,0.00,,---,0.00,VWS V15.00,2017-03-24 14:56:00,
2017-03-24 11:01:00,58.1,29.9,30.19,SSW,206,5.4,5.4,34,0.00,,---,0.00,VWS V15.00,2017-03-24 15:01:00,
2017-03-24 11:06:00,58.5,30.2,30.19,SSW,205,8.1,8.1,34,0.00,,---,0.00,VWS V15.00,2017-03-24 15:06:00,
2017-03-24 11:11:00,58.6,30.4,30.19,SW,216,5.8,8.1,34,0.00,,---,0.00,VWS V15.00,2017-03-24 15:11:00,
2017-03-24 11:16:00,58.6,30.4,30.19,SSW,209,15.4,15.4,34,0.00,,---,0.00,VWS V15.00,2017-03-24 15:16:00,
2017-03-24 11:21:00,58.6,30.4,30.19,SSW,206,10.5,10.5,34,0.00,,---,0.00,VWS V15.00,2017-03-24 15:21:00,
2017-03-24 11:26:00,58.8,31.2,30.19,SW,218,12.8,12.8,35,0.00,,---,0.00,VWS V15.00,2017-03-24 15:26:00,
2017-03-24 11:31:00,59.0,30.7,30.19,SSW,203,10.1,10.1,34,0.00,,---,0.00,VWS V15.00,2017-03-24 15:31:00,
2017-03-24 11:36:00,59.4,31.0,30.19,SSW,196,9.6,9.6,34,0.00,,---,0.00,VWS V15.00,2017-03-24 15:36:00,
2017-03-24 11:41:00,60.1,31.6,30.19,SSW,211,11.0,11.0,34,0.00,,---,0.00,VWS V15.00,2017-03-24 15:41:00,
2017-03-24 11:46:00,61.0,32.4,30.19,SSW,205,8.7,11.0,34,0.00,,---,0.00,VWS V15.00,2017-03-24 15:46:00,
2017-03-24 11:51:00,61.3,32.8,30.19,SSW,199,5.8,5.8,34,0.00,,---,0.00,VWS V15.00,2017-03-24 15:51:00,
2017-03-24 11:56:00,61.7,33.1,30.19,SW,220,12.8,12.8,34,0.00,,---,0.00,VWS V15.00,2017-03-24 15:56:00,
2017-03-24 12:01:00,61.5,32.9,30.19,SSW,206,12.3,13.2,34,0.00,,---,0.00,VWS V15.00,2017-03-24 16:01:00,
2017-03-24 12:06:00,61.7,33.1,30.19,SSW,198,12.8,12.8,34,0.00,,---,0.00,VWS V15.00,2017-03-24 16:06:00,
2017-03-24 12:11:00,61.9,33.2,30.19,SW,220,13.2,13.2,34,0.00,,---,0.00,VWS V15.00,2017-03-24 16:11:00,
2017-03-24 12:16:00,63.1,34.3,30.16,SSW,203,19.2,19.2,34,0.00,,---,0.00,VWS V15.00,2017-03-24 16:16:00,
2017-03-24 12:21:00,63.3,33.8,30.16,SSW,211,14.5,17.0,33,0.00,,---,0.00,VWS V15.00,2017-03-24 16:21:00,
2017-03-24 12:26:00,63.1,33.6,30.16,SW,223,13.2,13.2,33,0.00,,---,0.00,VWS V15.00,2017-03-24 16:26:00,
2017-03-24 12:31:00,63.1,33.6,30.16,SSW,203,13.6,17.4,33,0.00,,---,0.00,VWS V15.00,2017-03-24 16:31:00,
2017-03-24 12:36:00,63.9,34.2,30.16,SW,216,10.5,10.5,33,0.00,,---,0.00,VWS V15.00,2017-03-24 16:36:00,
2017-03-24 12:41:00,63.9,34.2,30.16,SSW,202,11.0,12.8,33,0.00,,---,0.00,VWS V15.00,2017-03-24 16:41:00,
2017-03-24 12:46:00,64.0,34.4,30.16,SSW,200,13.2,13.2,33,0.00,,---,0.00,VWS V15.00,2017-03-24 16:46:00,
2017-03-24 12:51:00,64.0,34.4,30.16,SSW,194,12.3,13.2,33,0.00,,---,0.00,VWS V15.00,2017-03-24 16:51:00,
2017-03-24 12:56:00,64.4,34.7,30.16,SW,228,11.0,11.0,33,0.00,,---,0.00,VWS V15.00,2017-03-24 16:56:00,
2017-03-24 13:01:00,64.6,34.1,30.16,SW,216,15.4,15.4,32,0.00,,---,0.00,VWS V15.00,2017-03-24 17:01:00,
2017-03-24 13:06:00,64.4,33.9,30.16,SSW,213,11.9,11.9,32,0.00,,---,0.00,VWS V15.00,2017-03-24 17:06:00,
2017-03-24 13:11:00,64.8,34.2,30.16,SSW,210,10.5,10.5,32,0.00,,---,0.00,VWS V15.00,2017-03-24 17:11:00,
2017-03-24 13:16:00,64.9,34.4,30.16,SW,220,10.5,12.8,32,0.00,,---,0.00,VWS V15.00,2017-03-24 17:16:00,
2017-03-24 13:21:00,65.1,34.6,30.16,SW,221,13.2,13.2,32,0.00,,---,0.00,VWS V15.00,2017-03-24 17:21:00,
2017-03-24 13:26:00,65.7,35.0,30.16,SW,217,11.0,11.0,32,0.00,,---,0.00,VWS V15.00,2017-03-24 17:26:00,
2017-03-24 13:31:00,66.2,34.7,30.16,SW,219,16.8,16.8,31,0.00,,---,0.00,VWS V15.00,2017-03-24 17:31:00,
2017-03-24 13:36:00,66.6,35.0,30.16,SW,217,11.0,12.8,31,0.00,,---,0.00,VWS V15.00,2017-03-24 17:36:00,
2017-03-24 13:41:00,67.1,35.5,30.16,SW,219,12.8,12.8,31,0.00,,---,0.00,VWS V15.00,2017-03-24 17:41:00,
2017-03-24 13:46:00,67.6,36.0,30.14,SSW,213,12.3,12.8,31,0.00,,---,0.00,VWS V15.00,2017-03-24 17:46:00,
2017-03-24 13:51:00,67.6,35.1,30.14,WSW,242,13.2,13.2,30,0.00,,---,0.00,VWS V15.00,2017-03-24 17:51:00,
2017-03-24 13:56:00,67.8,35.3,30.14,SW,222,8.7,10.1,30,0.00,,---,0.00,VWS V15.00,2017-03-24 17:56:00,
2017-03-24 14:01:00,68.4,34.9,30.14,SW,218,13.2,15.0,29,0.00,,---,0.00,VWS V15.00,2017-03-24 18:01:00,
2017-03-24 14:06:00,68.4,34.0,30.14,SW,221,12.8,12.8,28,0.00,,---,0.00,VWS V15.00,2017-03-24 18:06:00,
2017-03-24 14:11:00,68.7,34.3,30.14,SW,219,12.8,12.8,28,0.00,,---,0.00,VWS V15.00,2017-03-24 18:11:00,
2017-03-24 14:16:00,69.1,34.6,30.14,SSW,197,12.8,12.8,28,0.00,,---,0.00,VWS V15.00,2017-03-24 18:16:00,
2017-03-24 14:21:00,69.1,34.6,30.14,SSW,202,13.6,13.6,28,0.00,,---,0.00,VWS V15.00,2017-03-24 18:21:00,
2017-03-24 14:26:00,69.3,34.8,30.14,SSW,213,10.5,10.5,28,0.00,,---,0.00,VWS V15.00,2017-03-24 18:26:00,
2017-03-24 14:31:00,69.4,35.0,30.14,SSW,211,15.0,15.0,28,0.00,,---,0.00,VWS V15.00,2017-03-24 18:31:00,
2017-03-24 14:36:00,70.0,34.5,30.14,SW,214,15.9,15.9,27,0.00,,---,0.00,VWS V15.00,2017-03-24 18:36:00,
2017-03-24 14:41:00,70.3,34.8,30.14,SW,231,11.4,13.2,27,0.00,,---,0.00,VWS V15.00,2017-03-24 18:41:00,
2017-03-24 14:46:00,70.5,35.0,30.14,WSW,242,13.2,13.2,27,0.00,,---,0.00,VWS V15.00,2017-03-24 18:46:00,
2017-03-24 14:51:00,70.9,35.3,30.14,SSW,205,15.4,15.4,27,0.00,,---,0.00,VWS V15.00,2017-03-24 18:51:00,
2017-03-24 14:56:00,71.1,35.4,30.14,SW,230,12.8,12.8,27,0.00,,---,0.00,VWS V15.00,2017-03-24 18:56:00,
2017-03-24 15:01:00,71.6,34.9,30.11,SW,222,13.2,13.2,26,0.00,,---,0.00,VWS V15.00,2017-03-24 19:01:00,
2017-03-24 15:06:00,71.6,34.9,30.11,SW,232,17.9,17.9,26,0.00,,---,0.00,VWS V15.00,2017-03-24 19:06:00,
2017-03-24 15:11:00,71.8,35.1,30.11,SSW,207,14.5,14.5,26,0.00,,---,0.00,VWS V15.00,2017-03-24 19:11:00,